Time;durP1;ratioP1;P1;durP2;ratioP2;P2;SDS_P1;SDS_P2;PMS_P1;PMS_P2;Temp;Humidity;BMP_temperature;BMP_pressure;BME280_temperature;BME280_humidity;BME280_pressure;Samples;Min_cycle;Max_cycle;Signal;HPM_P1;HPM_P2
2021/05/12 00:00:15;;;;;;;84.53;45.35;;;13.10;99.90;;;;;;5096338;28;20024;-64
2021/05/12 00:02:41;;;;;;;79.28;44.63;;;13.10;99.90;;;;;;5095786;28;20048;-65
2021/05/12 00:05:09;;;;;;;84.85;45.95;;;13.10;99.90;;;;;;5096299;28;20060;-64
2021/05/12 00:07:34;;;;;;;84.50;45.30;;;13.10;99.90;;;;;;5096285;28;20420;-64
2021/05/12 00:10:01;;;;;;;88.72;47.08;;;13.20;99.90;;;;;;5095898;28;20024;-64
2021/05/12 00:12:27;;;;;;;87.82;48.92;;;13.10;99.90;;;;;;5077375;28;20449;-63
2021/05/12 00:14:52;;;;;;;90.00;47.92;;;13.10;99.90;;;;;;5096071;28;20103;-64
2021/05/12 00:17:19;;;;;;;90.45;49.25;;;13.10;99.90;;;;;;5096072;28;20073;-64
2021/05/12 00:19:53;;;;;;;93.10;50.72;;;13.10;99.90;;;;;;5096026;28;20023;-64
2021/05/12 00:22:33;;;;;;;102.95;53.75;;;13.10;99.90;;;;;;5095694;28;20028;-64
2021/05/12 00:24:59;;;;;;;100.40;55.75;;;13.10;99.90;;;;;;5095910;28;20024;-64
2021/05/12 00:27:24;;;;;;;100.43;54.35;;;13.10;99.90;;;;;;5095877;28;20427;-64
2021/05/12 00:29:50;;;;;;;102.68;55.40;;;13.10;99.90;;;;;;5094277;28;20027;-64
2021/05/12 00:32:15;;;;;;;103.63;55.58;;;13.00;99.90;;;;;;5095679;28;20504;-64
2021/05/12 00:34:41;;;;;;;99.10;55.78;;;13.00;99.90;;;;;;5094193;28;20045;-64
2021/05/12 00:37:07;;;;;;;111.55;57.42;;;13.00;99.90;;;;;;5094210;28;20118;-64
2021/05/12 00:39:32;;;;;;;106.15;58.15;;;13.10;99.90;;;;;;5095314;28;20020;-64
2021/05/12 00:42:00;;;;;;;109.65;58.30;;;13.00;99.90;;;;;;5095520;28;20035;-64
2021/05/12 00:44:26;;;;;;;106.20;57.65;;;13.00;99.90;;;;;;5095539;28;20415;-64
2021/05/12 00:46:52;;;;;;;107.63;58.58;;;13.00;99.90;;;;;;5095390;28;20074;-64
2021/05/12 00:49:19;;;;;;;102.03;59.10;;;13.00;99.90;;;;;;5095426;28;20476;-64
2021/05/12 00:51:45;;;;;;;99.22;56.13;;;12.90;99.90;;;;;;5095026;28;20032;-64
2021/05/12 00:54:12;;;;;;;114.35;60.95;;;12.90;99.90;;;;;;5095315;28;20024;-64
2021/05/12 00:56:40;;;;;;;107.97;59.90;;;12.90;99.90;;;;;;5093493;28;20039;-64
2021/05/12 00:59:07;;;;;;;108.22;60.40;;;12.90;99.90;;;;;;5094990;28;20028;-64
2021/05/12 01:01:33;;;;;;;108.40;62.10;;;13.00;99.90;;;;;;5094962;28;20023;-64
2021/05/12 01:03:59;;;;;;;97.15;60.10;;;12.90;99.90;;;;;;5095105;28;20028;-64
2021/05/12 01:06:29;;;;;;;107.60;62.90;;;12.90;99.90;;;;;;5095099;28;20363;-64
2021/05/12 01:08:54;;;;;;;104.43;61.40;;;12.90;99.90;;;;;;5095091;28;20028;-64
2021/05/12 01:11:20;;;;;;;109.50;62.85;;;12.90;99.90;;;;;;5094344;28;20062;-64
2021/05/12 01:13:47;;;;;;;113.35;64.55;;;12.90;99.90;;;;;;5095004;28;20100;-64
2021/05/12 01:16:14;;;;;;;107.47;62.65;;;12.80;99.90;;;;;;5094580;28;20358;-64
2021/05/12 01:18:40;;;;;;;108.13;62.40;;;12.70;99.90;;;;;;5094889;28;20070;-64
2021/05/12 01:21:07;;;;;;;107.85;62.25;;;12.70;99.90;;;;;;5094822;28;20028;-64
2021/05/12 01:23:36;;;;;;;111.13;62.17;;;12.70;99.90;;;;;;5093269;28;20111;-64
2021/05/12 01:26:06;;;;;;;102.25;57.63;;;12.70;99.90;;;;;;5094518;28;20059;-63
2021/05/12 01:28:38;;;;;;;101.90;60.97;;;12.80;99.90;;;;;;5094478;28;20107;-64
2021/05/12 01:31:08;;;;;;;105.27;61.80;;;12.70;99.90;;;;;;5094412;28;20097;-64
2021/05/12 01:33:35;;;;;;;103.93;61.35;;;12.60;99.90;;;;;;5094688;28;20107;-64
2021/05/12 01:36:01;;;;;;;97.88;59.25;;;12.60;99.90;;;;;;5094628;28;20052;-64
2021/05/12 01:38:28;;;;;;;97.35;58.55;;;12.60;99.90;;;;;;5094563;28;20032;-64
2021/05/12 01:40:55;;;;;;;101.88;61.15;;;12.60;99.90;;;;;;5094563;28;20464;-64
2021/05/12 01:43:21;;;;;;;97.00;59.97;;;12.60;99.90;;;;;;5094243;28;20027;-64
2021/05/12 01:45:47;;;;;;;100.13;59.65;;;12.60;99.90;;;;;;5094006;28;20461;-64
2021/05/12 01:48:13;;;;;;;96.30;58.85;;;12.60;99.90;;;;;;5094168;28;20020;-64
2021/05/12 01:50:39;;;;;;;95.35;58.13;;;12.60;99.90;;;;;;5094134;28;20043;-63
2021/05/12 01:53:06;;;;;;;93.97;58.92;;;12.50;99.90;;;;;;5092496;28;20039;-64
2021/05/12 01:55:31;;;;;;;96.40;58.47;;;12.50;99.90;;;;;;5094032;28;20016;-64
2021/05/12 01:57:57;;;;;;;93.30;57.05;;;12.50;99.90;;;;;;5094286;28;20090;-64
2021/05/12 02:00:29;;;;;;;93.20;57.08;;;12.50;99.90;;;;;;5094256;28;20103;-64
2021/05/12 02:02:55;;;;;;;88.88;55.95;;;12.50;99.90;;;;;;5094006;28;20075;-64
2021/05/12 02:05:22;;;;;;;95.47;58.50;;;12.50;99.90;;;;;;5093952;28;20078;-64
2021/05/12 02:07:51;;;;;;;93.38;58.33;;;12.40;99.90;;;;;;5094176;28;20560;-64
2021/05/12 02:10:17;;;;;;;97.80;58.88;;;12.40;99.90;;;;;;5093902;28;20444;-64
2021/05/12 02:12:43;;;;;;;94.90;58.05;;;12.40;99.90;;;;;;5092269;28;20064;-64
2021/05/12 02:15:11;;;;;;;101.85;56.53;;;12.30;99.90;;;;;;5093720;28;20020;-64
2021/05/12 02:17:37;;;;;;;93.97;57.75;;;12.30;99.90;;;;;;5094121;28;20017;-64
2021/05/12 02:20:06;;;;;;;95.70;57.60;;;12.30;99.90;;;;;;5093837;28;20067;-64
2021/05/12 02:22:31;;;;;;;91.00;58.00;;;12.30;99.90;;;;;;5092909;28;20457;-64
2021/05/12 02:24:57;;;;;;;97.43;59.78;;;12.30;99.90;;;;;;5094047;28;20039;-64
2021/05/12 02:27:23;;;;;;;97.47;60.35;;;12.20;99.90;;;;;;5093724;28;20047;-64
2021/05/12 02:29:48;;;;;;;89.45;57.20;;;12.20;99.90;;;;;;5093984;28;20020;-64
2021/05/12 02:32:14;;;;;;;92.78;59.80;;;12.20;99.90;;;;;;5093900;28;20040;-64
2021/05/12 02:34:39;;;;;;;94.60;59.13;;;12.10;99.90;;;;;;5093892;28;20484;-64
2021/05/12 02:37:05;;;;;;;97.05;58.15;;;12.10;99.90;;;;;;5093876;28;20024;-64
2021/05/12 02:39:30;;;;;;;94.40;58.67;;;12.10;99.90;;;;;;5093878;28;20028;-64
2021/05/12 02:41:56;;;;;;;96.43;60.85;;;12.10;99.90;;;;;;5093554;28;20030;-64
2021/05/12 02:44:22;;;;;;;103.00;62.25;;;12.10;99.90;;;;;;5093842;28;20503;-64
2021/05/12 02:46:48;;;;;;;103.65;63.17;;;12.10;99.90;;;;;;5093207;28;20064;-64
2021/05/12 02:49:13;;;;;;;99.40;60.70;;;12.00;99.90;;;;;;5093553;28;20028;-64
2021/05/12 02:51:39;;;;;;;104.85;63.00;;;12.10;99.90;;;;;;5093390;28;20020;-64
2021/05/12 02:54:05;;;;;;;101.82;61.63;;;12.10;99.90;;;;;;5093488;28;20021;-64
2021/05/12 02:56:30;;;;;;;105.05;63.05;;;12.10;99.90;;;;;;5092304;28;20024;-64
2021/05/12 02:58:56;;;;;;;109.47;64.18;;;12.10;99.90;;;;;;5095591;28;20073;-64
2021/05/12 03:01:21;;;;;;;106.75;65.72;;;12.10;99.90;;;;;;5097532;28;20465;-64
2021/05/12 03:03:47;;;;;;;116.32;66.82;;;12.10;99.90;;;;;;5096018;28;20031;-63
2021/05/12 03:06:12;;;;;;;111.80;66.55;;;12.10;99.90;;;;;;5095643;28;20028;-64
2021/05/12 03:08:38;;;;;;;118.63;68.47;;;12.10;99.90;;;;;;5097048;28;20082;-64
2021/05/12 03:11:04;;;;;;;116.85;69.63;;;12.10;99.90;;;;;;5097026;28;20051;-64
2021/05/12 03:13:29;;;;;;;121.28;71.63;;;12.10;99.90;;;;;;5097275;28;20388;-64
2021/05/12 03:15:55;;;;;;;123.35;72.40;;;12.10;99.90;;;;;;5096802;28;20471;-64
2021/05/12 03:18:21;;;;;;;126.82;73.10;;;12.10;99.90;;;;;;5096931;28;20038;-63
2021/05/12 03:20:46;;;;;;;124.07;72.68;;;12.10;99.90;;;;;;5096875;28;20151;-64
2021/05/12 03:23:12;;;;;;;118.55;71.18;;;12.10;99.90;;;;;;5097119;28;20034;-64
2021/05/12 03:25:37;;;;;;;127.07;75.68;;;12.10;99.90;;;;;;5097090;28;20093;-63
2021/05/12 03:28:04;;;;;;;130.80;76.28;;;12.10;99.90;;;;;;5097010;28;20034;-63
2021/05/12 03:30:33;;;;;;;125.40;74.50;;;12.10;99.90;;;;;;5095196;28;20074;-63
2021/05/12 03:33:00;;;;;;;139.57;78.82;;;12.10;99.90;;;;;;5095060;28;20020;-63
2021/05/12 03:35:26;;;;;;;133.40;76.93;;;12.10;99.90;;;;;;5096649;28;20017;-63
2021/05/12 03:37:52;;;;;;;140.73;81.13;;;12.10;99.90;;;;;;5096895;28;20023;-63
2021/05/12 03:40:18;;;;;;;140.38;80.75;;;12.10;99.90;;;;;;5096464;28;20028;-63
2021/05/12 03:42:44;;;;;;;135.40;79.82;;;12.10;99.90;;;;;;5096739;28;20032;-64
2021/05/12 03:45:11;;;;;;;142.30;81.43;;;12.10;99.90;;;;;;5096479;28;20028;-64
2021/05/12 03:47:36;;;;;;;144.75;84.03;;;12.10;99.90;;;;;;5096140;28;20035;-63
2021/05/12 03:50:05;;;;;;;135.60;82.63;;;12.10;99.90;;;;;;5096333;28;20385;-64
2021/05/12 03:52:31;;;;;;;145.93;82.75;;;12.00;99.90;;;;;;5096223;28;20030;-64
2021/05/12 03:54:57;;;;;;;138.85;83.32;;;12.00;99.90;;;;;;5096271;28;20024;-64
2021/05/12 03:57:22;;;;;;;147.50;85.32;;;12.10;99.90;;;;;;5096194;28;20465;-63
2021/05/12 03:59:48;;;;;;;138.40;82.85;;;12.00;99.90;;;;;;5096147;28;20028;-64
2021/05/12 04:02:13;;;;;;;132.90;82.25;;;12.10;99.90;;;;;;5096122;28;20024;-64
2021/05/12 04:04:39;;;;;;;136.82;82.25;;;12.10;99.90;;;;;;5096021;28;20085;-64
2021/05/12 04:07:04;;;;;;;142.48;83.47;;;12.00;99.90;;;;;;5096024;28;20039;-64
2021/05/12 04:09:30;;;;;;;131.60;82.30;;;12.00;99.90;;;;;;5096118;28;20028;-64
2021/05/12 04:11:56;;;;;;;141.45;83.68;;;12.10;99.90;;;;;;5095670;28;20040;-64
2021/05/12 04:14:21;;;;;;;136.50;79.85;;;12.10;99.90;;;;;;5096001;28;20021;-64
2021/05/12 04:16:48;;;;;;;134.02;81.07;;;12.10;99.90;;;;;;5095683;28;20016;-64
2021/05/12 04:19:14;;;;;;;130.52;79.97;;;12.10;99.90;;;;;;5095808;28;20016;-64
2021/05/12 04:21:40;;;;;;;138.52;80.68;;;12.10;99.90;;;;;;5095739;28;20027;-64
2021/05/12 04:24:06;;;;;;;133.98;80.22;;;12.10;99.90;;;;;;5095347;28;20020;-64
2021/05/12 04:26:31;;;;;;;128.02;79.20;;;12.00;99.90;;;;;;5095593;28;20039;-64
2021/05/12 04:28:57;;;;;;;134.02;80.60;;;12.10;99.90;;;;;;5095565;28;20408;-64
2021/05/12 04:31:22;;;;;;;132.38;79.10;;;12.10;99.90;;;;;;5095422;28;20154;-64
2021/05/12 04:33:48;;;;;;;136.70;79.40;;;12.00;99.90;;;;;;5095750;28;20369;-64
2021/05/12 04:36:13;;;;;;;130.18;78.40;;;12.00;99.90;;;;;;5094453;28;20020;-64
2021/05/12 04:38:39;;;;;;;125.00;73.85;;;12.00;99.90;;;;;;5095653;28;20020;-64
2021/05/12 04:41:05;;;;;;;127.65;77.20;;;12.00;99.90;;;;;;5095637;28;20055;-64
2021/05/12 04:43:30;;;;;;;120.55;71.28;;;12.00;99.90;;;;;;5095575;28;20457;-64
2021/05/12 04:45:56;;;;;;;119.20;72.07;;;12.00;99.90;;;;;;5093812;28;20020;-64
2021/05/12 04:48:21;;;;;;;112.40;68.65;;;12.00;99.90;;;;;;5094398;28;20024;-64
2021/05/12 04:50:47;;;;;;;108.28;66.82;;;12.10;99.90;;;;;;5094860;28;20074;-64
2021/05/12 04:53:13;;;;;;;110.97;66.18;;;12.10;99.90;;;;;;5094682;28;20112;-64
2021/05/12 04:55:38;;;;;;;105.38;63.65;;;12.10;99.90;;;;;;5095019;28;20099;-64
2021/05/12 04:58:04;;;;;;;97.28;61.63;;;12.20;99.90;;;;;;5093477;28;20032;-64
2021/05/12 05:00:38;;;;;;;95.75;59.78;;;12.20;99.90;;;;;;5094880;28;20095;-64
2021/05/12 05:03:06;;;;;;;97.97;59.00;;;12.30;99.90;;;;;;5093408;28;20469;-64
2021/05/12 05:05:32;;;;;;;82.60;54.63;;;12.30;99.90;;;;;;5095138;28;20031;-64
2021/05/12 05:07:57;;;;;;;84.85;54.13;;;12.40;99.90;;;;;;5095117;28;20028;-64
2021/05/12 05:10:23;;;;;;;75.63;49.83;;;12.40;99.90;;;;;;5093578;28;20048;-64
2021/05/12 05:12:49;;;;;;;77.30;49.70;;;12.50;99.90;;;;;;5094371;28;20586;-64
2021/05/12 05:15:16;;;;;;;75.95;49.80;;;12.50;99.90;;;;;;5094540;28;20052;-64
2021/05/12 05:17:42;;;;;;;67.68;45.50;;;12.50;99.90;;;;;;5094690;28;20020;-64
2021/05/12 05:20:09;;;;;;;71.45;47.10;;;12.60;99.90;;;;;;5094590;28;20028;-64
2021/05/12 05:22:35;;;;;;;69.90;47.47;;;12.60;99.90;;;;;;5094120;28;20416;-64
2021/05/12 05:25:02;;;;;;;71.63;47.05;;;12.60;99.90;;;;;;5094805;28;20077;-64
2021/05/12 05:27:27;;;;;;;65.95;46.17;;;12.70;99.90;;;;;;5094791;28;20031;-64
2021/05/12 05:29:53;;;;;;;65.20;45.13;;;12.80;99.90;;;;;;5094688;28;20399;-64
2021/05/12 05:32:18;;;;;;;68.07;42.33;;;13.00;99.90;;;;;;5094313;28;20028;-63
2021/05/12 05:34:44;;;;;;;57.83;39.60;;;13.10;99.90;;;;;;5094344;28;20028;-64
2021/05/12 05:37:10;;;;;;;53.80;38.13;;;13.10;99.90;;;;;;5094339;28;20024;-64
2021/05/12 05:39:36;;;;;;;51.90;37.35;;;13.30;99.90;;;;;;5093980;28;20020;-64
2021/05/12 05:42:03;;;;;;;55.40;35.20;;;13.50;99.90;;;;;;5094505;28;20028;-64
2021/05/12 05:44:29;;;;;;;52.50;34.80;;;13.70;99.90;;;;;;5094364;28;20492;-64
2021/05/12 05:46:55;;;;;;;50.78;34.15;;;13.70;99.90;;;;;;5093900;28;20032;-65
2021/05/12 05:49:21;;;;;;;46.65;32.28;;;13.90;99.90;;;;;;5094421;28;20461;-64
2021/05/12 05:51:47;;;;;;;42.20;31.90;;;13.90;99.90;;;;;;5094334;28;20369;-64
2021/05/12 05:54:13;;;;;;;44.80;30.50;;;13.90;99.90;;;;;;5094342;28;20021;-65
2021/05/12 05:56:38;;;;;;;39.55;28.42;;;14.20;99.90;;;;;;5094277;28;20020;-64
2021/05/12 05:59:04;;;;;;;35.28;25.92;;;14.80;99.90;;;;;;5094266;28;20429;-64
2021/05/12 06:01:29;;;;;;;36.65;24.08;;;15.20;99.90;;;;;;5093699;28;20028;-64
2021/05/12 06:03:55;;;;;;;33.22;24.55;;;15.30;99.90;;;;;;5094223;28;20035;-64
2021/05/12 06:06:20;;;;;;;31.00;21.88;;;15.00;99.90;;;;;;5094018;28;20051;-64
2021/05/12 06:08:46;;;;;;;31.00;21.83;;;15.50;99.90;;;;;;5094069;28;20034;-64
2021/05/12 06:11:11;;;;;;;37.00;22.52;;;15.80;99.90;;;;;;5091494;28;20393;-65
2021/05/12 06:13:37;;;;;;;31.33;22.10;;;15.70;99.90;;;;;;5092503;28;20175;-64
2021/05/12 06:16:03;;;;;;;29.38;20.02;;;15.90;99.90;;;;;;5093720;28;20532;-64
2021/05/12 06:18:29;;;;;;;26.48;20.00;;;16.00;99.90;;;;;;5092408;28;20020;-64
2021/05/12 06:20:56;;;;;;;30.95;20.52;;;16.60;99.90;;;;;;5092358;28;20027;-64
2021/05/12 06:23:21;;;;;;;28.50;20.75;;;16.60;99.90;;;;;;5093449;28;20019;-65
2021/05/12 06:25:49;;;;;;;29.67;21.48;;;17.00;99.90;;;;;;5093199;28;20016;-64
2021/05/12 06:28:16;;;;;;;27.65;18.55;;;17.30;99.90;;;;;;5093807;28;20032;-64
2021/05/12 06:30:49;;;;;;;25.40;20.20;;;18.00;99.90;;;;;;5091722;28;20107;-64
2021/05/12 06:33:14;;;;;;;29.30;19.43;;;17.90;99.90;;;;;;5093917;28;20107;-64
2021/05/12 06:35:40;;;;;;;25.38;19.38;;;16.80;99.90;;;;;;5097543;28;20380;-64
2021/05/12 06:38:05;;;;;;;29.75;21.52;;;16.50;99.90;;;;;;5097074;28;20032;-64
2021/05/12 06:40:31;;;;;;;28.92;19.38;;;15.90;99.90;;;;;;5097387;28;20020;-64
2021/05/12 06:43:00;;;;;;;28.83;19.40;;;15.90;99.90;;;;;;5095946;28;20032;-64
2021/05/12 06:45:26;;;;;;;24.40;18.60;;;15.90;99.90;;;;;;5096912;28;20035;-64
2021/05/12 06:47:54;;;;;;;25.63;18.85;;;15.60;99.90;;;;;;5096939;28;20020;-64
2021/05/12 06:50:22;;;;;;;31.58;18.85;;;14.90;99.90;;;;;;5096991;28;20107;-64
2021/05/12 06:52:52;;;;;;;29.58;18.42;;;14.80;99.90;;;;;;5096802;28;20020;-64
2021/05/12 06:55:18;;;;;;;30.25;18.90;;;15.00;99.90;;;;;;5095918;28;20086;-64
2021/05/12 06:57:43;;;;;;;25.13;15.93;;;15.50;99.90;;;;;;5096971;28;20020;-65
2021/05/12 07:00:09;;;;;;;26.00;16.80;;;16.10;99.90;;;;;;5097045;28;20070;-64
2021/05/12 07:02:35;;;;;;;30.95;15.90;;;16.80;99.90;;;;;;5095644;28;20115;-64
2021/05/12 07:05:00;;;;;;;25.05;15.90;;;16.50;99.90;;;;;;5079321;28;20111;-65
2021/05/12 07:07:26;;;;;;;22.10;14.98;;;16.70;99.90;;;;;;5096778;28;20051;-64
2021/05/12 07:09:51;;;;;;;22.83;14.32;;;17.10;99.90;;;;;;5096976;28;20509;-64
2021/05/12 07:12:18;;;;;;;20.52;14.52;;;17.60;99.90;;;;;;5094440;28;20044;-65
2021/05/12 07:14:43;;;;;;;22.42;14.23;;;17.40;99.90;;;;;;5096421;28;20138;-64
2021/05/12 07:17:09;;;;;;;21.63;12.90;;;17.40;99.90;;;;;;5094361;28;20103;-64
2021/05/12 07:19:34;;;;;;;17.40;13.10;;;17.70;99.90;;;;;;5096116;28;20088;-64
2021/05/12 07:22:00;;;;;;;25.60;13.95;;;17.40;99.90;;;;;;5095695;28;20518;-64
2021/05/12 07:24:25;;;;;;;19.98;13.63;;;17.80;99.90;;;;;;5095614;28;20099;-65
2021/05/12 07:26:51;;;;;;;18.58;12.40;;;18.60;99.90;;;;;;5096222;28;20101;-65
2021/05/12 07:29:16;;;;;;;20.00;12.82;;;18.70;99.90;;;;;;5096829;28;20465;-66
2021/05/12 07:31:42;;;;;;;20.83;13.60;;;19.00;99.90;;;;;;5095551;28;20032;-68
2021/05/12 07:34:10;;;;;;;19.98;12.75;;;19.00;99.90;;;;;;5096298;28;20036;-65
2021/05/12 07:36:37;;;;;;;20.77;11.65;;;19.60;99.90;;;;;;5096172;28;20024;-64
2021/05/12 07:39:05;;;;;;;19.08;11.45;;;19.80;99.90;;;;;;5096399;28;20019;-64
2021/05/12 07:41:31;;;;;;;20.13;11.60;;;19.30;99.90;;;;;;5096047;28;20020;-64
2021/05/12 07:43:56;;;;;;;15.88;11.88;;;18.70;99.90;;;;;;5095934;28;20409;-65
2021/05/12 07:46:22;;;;;;;19.58;12.30;;;18.00;99.90;;;;;;5095708;28;20032;-64
2021/05/12 07:48:47;;;;;;;18.67;12.30;;;17.80;99.90;;;;;;5095965;28;20028;-65
2021/05/12 07:51:13;;;;;;;20.98;12.93;;;17.10;99.90;;;;;;5096015;28;20397;-65
2021/05/12 07:53:38;;;;;;;20.10;12.10;;;17.00;99.90;;;;;;5094978;28;20024;-64
2021/05/12 07:56:04;;;;;;;22.70;11.48;;;16.90;99.90;;;;;;5096093;28;20028;-65
2021/05/12 07:58:30;;;;;;;20.23;12.38;;;16.70;99.90;;;;;;5095383;28;20050;-65
2021/05/12 08:01:02;;;;;;;19.02;12.13;;;16.70;99.90;;;;;;5096008;28;20473;-65
2021/05/12 08:03:27;;;;;;;23.05;13.30;;;16.70;99.90;;;;;;5094327;28;20098;-65
2021/05/12 08:05:53;;;;;;;16.98;11.75;;;16.50;99.90;;;;;;5095372;28;20473;-65
2021/05/12 08:08:18;;;;;;;21.00;12.60;;;16.60;99.90;;;;;;5093875;28;20020;-65
2021/05/12 08:10:44;;;;;;;20.27;13.13;;;16.50;99.90;;;;;;5094512;28;20058;-65
2021/05/12 08:13:09;;;;;;;21.13;11.95;;;16.60;99.90;;;;;;5094570;28;20054;-64
2021/05/12 08:15:35;;;;;;;17.52;10.85;;;16.80;99.90;;;;;;5094871;28;20055;-64
2021/05/12 08:18:00;;;;;;;17.67;12.50;;;16.90;99.90;;;;;;5093933;28;20111;-65
2021/05/12 08:20:26;;;;;;;21.40;12.85;;;17.20;99.90;;;;;;5095822;28;20024;-64
2021/05/12 08:22:51;;;;;;;19.98;11.73;;;17.70;99.90;;;;;;5094129;28;20020;-65
2021/05/12 08:25:17;;;;;;;17.67;10.93;;;17.90;99.90;;;;;;5094675;28;20461;-64
2021/05/12 08:27:43;;;;;;;17.30;10.48;;;18.20;99.90;;;;;;5095743;28;20071;-64
2021/05/12 08:30:11;;;;;;;17.20;10.80;;;19.10;99.90;;;;;;5095669;28;20032;-64
2021/05/12 08:32:36;;;;;;;18.33;11.35;;;19.60;99.90;;;;;;5095595;28;20104;-65
2021/05/12 08:35:02;;;;;;;19.70;11.38;;;20.20;99.90;;;;;;5094868;28;20048;-65
2021/05/12 08:37:28;;;;;;;14.18;8.98;;;20.30;99.90;;;;;;5094971;28;20477;-64
2021/05/12 08:39:53;;;;;;;20.92;10.63;;;20.80;99.90;;;;;;5094073;28;21629;-64
2021/05/12 08:42:19;;;;;;;18.20;9.75;;;20.70;99.90;;;;;;5094542;28;20028;-65
2021/05/12 08:44:47;;;;;;;20.20;12.02;;;20.40;99.90;;;;;;5094868;28;20020;-64
2021/05/12 08:47:15;;;;;;;13.95;8.05;;;20.80;99.90;;;;;;5094929;28;20032;-65
2021/05/12 08:49:43;;;;;;;17.83;7.80;;;20.80;99.90;;;;;;5094304;28;20028;-65
2021/05/12 08:52:08;;;;;;;12.20;7.97;;;20.90;99.90;;;;;;5093224;28;20067;-65
2021/05/12 08:54:35;;;;;;;15.98;8.07;;;21.10;99.90;;;;;;5093148;28;20101;-65
2021/05/12 08:57:01;;;;;;;14.73;7.85;;;21.20;99.90;;;;;;5093725;28;20049;-65
2021/05/12 08:59:26;;;;;;;12.23;7.43;;;22.30;99.90;;;;;;5094806;28;20030;-64
2021/05/12 09:01:52;;;;;;;16.90;9.18;;;22.40;99.90;;;;;;5094696;28;20028;-65
2021/05/12 09:04:18;;;;;;;17.77;9.40;;;22.10;99.90;;;;;;5094311;28;20398;-66
2021/05/12 09:06:44;;;;;;;16.55;9.52;;;21.90;99.90;;;;;;5094972;28;20059;-65
2021/05/12 09:09:09;;;;;;;15.32;9.15;;;22.10;99.90;;;;;;5094536;28;20043;-65
2021/05/12 09:11:36;;;;;;;17.80;9.85;;;22.60;99.90;;;;;;5092797;28;20528;-65
2021/05/12 09:14:03;;;;;;;14.40;8.98;;;22.80;99.90;;;;;;5094280;28;20020;-65
2021/05/12 09:16:31;;;;;;;11.57;6.80;;;23.20;99.90;;;;;;5094288;28;20380;-66
2021/05/12 09:19:14;;;;;;;10.02;6.43;;;22.80;98.70;;;;;;5094223;28;20542;-65
2021/05/12 09:21:48;;;;;;;12.82;6.55;;;23.30;97.20;;;;;;5093301;28;20028;-65
2021/05/12 09:24:35;;;;;;;11.55;7.40;;;23.30;96.50;;;;;;5094115;28;20071;-65
2021/05/12 09:27:05;;;;;;;11.95;7.10;;;22.80;97.00;;;;;;5094029;28;20074;-65
2021/05/12 09:29:35;;;;;;;10.75;6.70;;;22.80;97.30;;;;;;5094308;28;20027;-66
2021/05/12 09:32:06;;;;;;;16.05;7.82;;;23.10;97.50;;;;;;5094486;28;20032;-66
2021/05/12 09:34:57;;;;;;;15.93;7.55;;;22.30;99.10;;;;;;5093664;28;20465;-66
2021/05/12 09:37:33;;;;;;;13.00;7.60;;;22.30;98.90;;;;;;5093563;28;20070;-66
2021/05/12 09:40:02;;;;;;;11.52;6.10;;;21.80;97.60;;;;;;5093680;28;20099;-66
2021/05/12 09:42:27;;;;;;;14.00;6.05;;;22.30;98.30;;;;;;5092075;28;20028;-66
2021/05/12 09:45:17;;;;;;;8.23;5.50;;;22.80;96.70;;;;;;5093399;28;20035;-66
2021/05/12 09:47:45;;;;;;;11.10;5.78;;;22.60;96.30;;;;;;5091995;28;20487;-65
2021/05/12 09:50:16;;;;;;;9.80;6.13;;;23.40;96.00;;;;;;5094030;28;20519;-66
2021/05/12 09:52:42;;;;;;;12.18;6.45;;;24.00;93.90;;;;;;5093954;28;20020;-65
2021/05/12 09:55:09;;;;;;;11.73;6.65;;;22.60;97.00;;;;;;5093967;28;20453;-66
2021/05/12 09:57:35;;;;;;;14.75;7.18;;;22.50;98.10;;;;;;5094200;28;20098;-66
2021/05/12 10:00:00;;;;;;;10.50;6.82;;;21.90;96.20;;;;;;5094177;28;20048;-66
2021/05/12 10:02:26;;;;;;;12.93;6.75;;;21.60;96.70;;;;;;5094121;28;20027;-66
2021/05/12 10:04:59;;;;;;;11.90;6.63;;;22.10;96.40;;;;;;5093505;28;20370;-65
2021/05/12 10:07:26;;;;;;;11.68;6.78;;;22.60;95.30;;;;;;5093792;28;20028;-65
2021/05/12 10:09:53;;;;;;;15.40;7.25;;;22.70;94.20;;;;;;5092745;28;20119;-65
2021/05/12 10:12:23;;;;;;;9.70;7.35;;;22.30;95.30;;;;;;5092001;28;20055;-65
2021/05/12 10:14:50;;;;;;;10.13;6.43;;;22.70;94.40;;;;;;5094002;28;20024;-65
2021/05/12 10:17:18;;;;;;;12.55;5.97;;;22.40;96.30;;;;;;5093985;28;20016;-65
2021/05/12 10:19:45;;;;;;;9.27;5.70;;;23.30;94.90;;;;;;5093990;28;20025;-65
2021/05/12 10:22:12;;;;;;;11.63;5.97;;;23.90;92.80;;;;;;5092999;28;20494;-65
2021/05/12 10:24:39;;;;;;;14.57;6.88;;;23.70;90.70;;;;;;5093136;28;20358;-65
2021/05/12 10:27:11;;;;;;;10.00;6.07;;;23.30;93.80;;;;;;5075006;28;20024;-65
2021/05/12 10:29:39;;;;;;;8.63;6.00;;;23.30;93.70;;;;;;5092263;28;20154;-65
2021/05/12 10:32:32;;;;;;;10.82;6.10;;;23.20;94.20;;;;;;5093541;28;20539;-66
2021/05/12 10:35:04;;;;;;;11.13;6.60;;;23.10;92.30;;;;;;5092433;28;20027;-65
2021/05/12 10:37:31;;;;;;;15.27;5.80;;;23.20;94.60;;;;;;5093459;28;20016;-65
2021/05/12 10:40:05;;;;;;;10.20;5.97;;;23.90;93.50;;;;;;5093806;28;20017;-66
2021/05/12 10:43:33;;;;;;;14.60;6.28;;;23.50;88.00;;;;;;5093784;28;20032;-66
2021/05/12 10:48:42;;;;;;;10.35;6.00;;;22.00;93.00;;;;;;5091719;28;20402;-64
2021/05/12 10:51:27;;;;;;;11.57;5.43;;;22.00;95.20;;;;;;5090957;28;20111;-64
2021/05/12 10:53:55;;;;;;;14.10;5.60;;;22.10;94.60;;;;;;5091175;28;20021;-64
2021/05/12 10:56:32;;;;;;;16.60;8.15;;;21.90;96.20;;;;;;5091084;28;20462;-65
2021/05/12 10:59:04;;;;;;;12.07;6.70;;;21.70;95.60;;;;;;5091030;28;20107;-66
2021/05/12 11:01:35;;;;;;;9.68;6.57;;;21.40;94.80;;;;;;5091003;28;20024;-65
2021/05/12 11:09:17;;;;;;;12.02;6.60;;;21.30;95.80;;;;;;5112090;27;20294;-65
2021/05/12 11:14:27;;;;;;;11.77;6.55;;;21.40;96.70;;;;;;5111863;27;20107;-65
2021/05/12 11:17:10;;;;;;;13.47;6.67;;;21.40;95.10;;;;;;5111544;28;20483;-66
2021/05/12 11:22:43;;;;;;;13.98;7.25;;;21.30;94.60;;;;;;5070694;28;20399;-65
2021/05/12 11:25:21;;;;;;;11.32;7.00;;;20.80;96.40;;;;;;5070891;28;20107;-64
2021/05/12 11:33:25;;;;;;;12.98;7.47;;;19.70;99.90;;;;;;5111088;28;20464;-65
2021/05/12 11:35:57;;;;;;;14.35;6.63;;;19.90;99.10;;;;;;5111393;28;20016;-64
2021/05/12 11:38:22;;;;;;;13.68;7.57;;;20.30;99.60;;;;;;5110251;28;20050;-64
2021/05/12 11:41:10;;;;;;;14.60;7.78;;;20.50;98.60;;;;;;5111205;28;20020;-64
2021/05/12 11:43:40;;;;;;;12.43;7.18;;;20.40;97.30;;;;;;5111044;28;20102;-66
2021/05/12 11:46:28;;;;;;;14.02;7.47;;;20.40;98.50;;;;;;5109876;28;20057;-65
2021/05/12 11:48:57;;;;;;;14.18;7.50;;;19.80;98.80;;;;;;5111628;28;20030;-66
2021/05/12 11:51:41;;;;;;;10.38;7.40;;;19.80;99.50;;;;;;5111194;28;20103;-65
2021/05/12 11:54:21;;;;;;;12.75;7.35;;;19.80;99.90;;;;;;5110256;28;20066;-65
2021/05/12 11:56:49;;;;;;;12.35;7.30;;;19.70;99.90;;;;;;5111339;28;20364;-65
2021/05/12 11:59:20;;;;;;;15.32;8.13;;;19.70;99.90;;;;;;5109595;28;20469;-65
2021/05/12 12:01:48;;;;;;;13.90;7.22;;;19.40;99.90;;;;;;5110920;28;20031;-65
2021/05/12 12:07:03;;;;;;;11.50;7.28;;;18.80;99.90;;;;;;5110477;28;20043;-65
2021/05/12 12:09:29;;;;;;;10.80;7.18;;;18.60;99.90;;;;;;5110605;28;20367;-65
2021/05/12 12:11:58;;;;;;;12.57;8.00;;;18.40;99.90;;;;;;5109161;28;20016;-65
2021/05/12 12:14:34;;;;;;;10.63;7.50;;;18.20;99.90;;;;;;5110360;28;20024;-65
2021/05/12 12:17:00;;;;;;;11.43;7.82;;;17.90;99.90;;;;;;5110985;28;20016;-65
2021/05/12 12:19:26;;;;;;;11.07;7.82;;;17.50;99.90;;;;;;5110682;28;20069;-65
2021/05/12 12:21:55;;;;;;;12.68;8.65;;;17.10;99.90;;;;;;5110660;28;20023;-65
2021/05/12 12:24:24;;;;;;;14.65;9.00;;;17.10;99.90;;;;;;5110865;28;20024;-65
2021/05/12 12:26:53;;;;;;;15.07;9.23;;;17.10;99.90;;;;;;5110837;28;20377;-65
2021/05/12 12:29:20;;;;;;;14.70;9.57;;;16.80;99.90;;;;;;5109930;28;20048;-65
2021/05/12 12:31:49;;;;;;;15.65;9.85;;;16.90;99.90;;;;;;5091874;28;20027;-65
2021/05/12 12:34:30;;;;;;;12.43;9.82;;;16.80;99.90;;;;;;5110699;28;20012;-65
2021/05/12 12:37:08;;;;;;;14.68;9.75;;;16.70;99.90;;;;;;5109248;28;20020;-65
2021/05/12 12:39:56;;;;;;;17.70;10.73;;;16.70;99.90;;;;;;5109535;28;20028;-65
2021/05/12 12:42:40;;;;;;;17.35;11.75;;;16.70;99.90;;;;;;5096437;28;20028;-65
2021/05/12 12:45:26;;;;;;;16.73;11.43;;;16.80;99.90;;;;;;5096734;28;20042;-64
2021/05/12 12:47:55;;;;;;;20.02;11.27;;;16.80;99.90;;;;;;5095785;28;20031;-65
2021/05/12 12:50:22;;;;;;;15.95;11.02;;;16.80;99.90;;;;;;5094179;28;20027;-65
2021/05/12 12:52:48;;;;;;;15.20;10.82;;;16.70;99.90;;;;;;5095824;28;20024;-65